Time;durP1;ratioP1;P1;durP2;ratioP2;P2;SDS_P1;SDS_P2;PMS_P1;PMS_P2;Temp;Humidity;BMP_temperature;BMP_pressure;BME280_temperature;BME280_humidity;BME280_pressure;Samples;Min_cycle;Max_cycle;Signal;HPM_P1;HPM_P2
2023/06/20 00:02:01;;;;;;;11.25;3.88;;;;;;;27.19;23.59;99128.66;5054683;28;20056;-65
2023/06/20 00:04:27;;;;;;;14.13;3.95;;;;;;;27.15;23.70;99134.97;5039019;28;20078;-65
2023/06/20 00:06:53;;;;;;;14.95;4.20;;;;;;;27.19;23.46;99131.41;5056292;28;20048;-65
2023/06/20 00:09:19;;;;;;;16.55;4.82;;;;;;;27.22;23.52;99130.84;5073606;28;20047;-65
2023/06/20 00:11:45;;;;;;;14.77;4.03;;;;;;;27.06;23.68;99126.50;5052814;28;20439;-66
2023/06/20 00:14:12;;;;;;;10.95;4.25;;;;;;;27.06;23.77;99120.25;5036446;28;20071;-65
2023/06/20 00:16:38;;;;;;;10.07;4.28;;;;;;;27.12;23.49;99124.59;5069135;28;20471;-65
2023/06/20 00:19:04;;;;;;;13.95;4.05;;;;;;;27.11;23.53;99126.50;5069870;28;20050;-69
2023/06/20 00:21:30;;;;;;;9.80;3.90;;;;;;;26.99;23.74;99112.38;5051812;28;20139;-65
2023/06/20 00:23:56;;;;;;;11.65;3.47;;;;;;;27.04;23.66;99119.72;5053144;28;20044;-66
2023/06/20 00:26:22;;;;;;;21.15;4.20;;;;;;;27.12;23.51;99127.34;5050943;28;20040;-65
2023/06/20 00:28:49;;;;;;;11.57;3.65;;;;;;;27.13;23.58;99123.50;5024955;28;20147;-67
2023/06/20 00:31:16;;;;;;;13.10;3.90;;;;;;;27.14;23.88;99133.34;5058327;28;20039;-64
2023/06/20 00:33:42;;;;;;;12.23;3.65;;;;;;;27.16;23.52;99128.41;5064460;28;20063;-66
2023/06/20 00:36:08;;;;;;;12.23;4.38;;;;;;;27.11;23.56;99134.69;5037790;28;20065;-66
2023/06/20 00:38:34;;;;;;;15.43;4.15;;;;;;;26.98;24.09;99131.72;5094105;28;20054;-65
2023/06/20 00:41:00;;;;;;;13.43;3.95;;;;;;;26.92;24.09;99128.22;5045990;28;20048;-65
2023/06/20 00:43:26;;;;;;;9.98;3.65;;;;;;;26.96;24.57;99123.00;5067619;28;20144;-65
2023/06/20 00:45:53;;;;;;;13.45;4.05;;;;;;;26.87;24.23;99125.50;5053792;28;20484;-65
2023/06/20 00:48:21;;;;;;;8.43;4.15;;;;;;;26.78;24.35;99123.59;5058724;28;20105;-65
2023/06/20 00:50:48;;;;;;;18.10;4.55;;;;;;;26.78;24.36;99121.69;5055832;28;20512;-66
2023/06/20 00:53:14;;;;;;;12.60;3.63;;;;;;;26.76;24.58;99123.03;5039806;28;20063;-65
2023/06/20 00:55:40;;;;;;;10.35;3.95;;;;;;;26.69;24.53;99125.25;5079436;28;20083;-65
2023/06/20 00:58:06;;;;;;;15.05;3.97;;;;;;;26.74;24.08;99130.69;5077096;28;20133;-66
2023/06/20 01:00:34;;;;;;;11.32;4.53;;;;;;;26.89;24.93;99134.22;5075800;28;20090;-65
2023/06/20 01:03:11;;;;;;;14.05;3.88;;;;;;;26.85;24.81;99132.31;5074473;28;20054;-66
2023/06/20 01:05:38;;;;;;;9.63;4.15;;;;;;;26.53;24.76;99116.22;5085711;28;20045;-69
2023/06/20 01:08:09;;;;;;;10.68;4.22;;;;;;;26.62;25.25;99114.59;5073167;28;20131;-69
2023/06/20 01:10:44;;;;;;;11.93;3.83;;;;;;;26.81;24.98;99129.31;5076738;28;20063;-65
2023/06/20 01:13:17;;;;;;;11.40;3.97;;;;;;;26.83;25.06;99129.03;5070987;28;20036;-65
2023/06/20 01:15:52;;;;;;;13.27;4.30;;;;;;;26.78;24.71;99127.16;5015072;28;20485;-66
2023/06/20 01:18:32;;;;;;;12.00;3.97;;;;;;;26.81;24.55;99131.22;5016789;28;20068;-66
2023/06/20 01:21:07;;;;;;;15.82;4.22;;;;;;;26.71;25.06;99126.59;5046624;28;20056;-66
2023/06/20 01:23:42;;;;;;;13.75;3.92;;;;;;;26.76;24.92;99131.22;5049087;28;20171;-65
2023/06/20 01:26:21;;;;;;;9.90;3.92;;;;;;;26.79;24.99;99122.50;5035145;28;20202;-65
2023/06/20 01:28:55;;;;;;;14.30;4.30;;;;;;;26.65;25.41;99127.69;5017991;28;20062;-66
2023/06/20 01:31:34;;;;;;;12.65;4.13;;;;;;;26.65;25.42;99121.44;4988368;28;20488;-66
2023/06/20 01:34:28;;;;;;;10.07;3.70;;;;;;;26.56;25.34;99123.03;5050170;28;20362;-65
2023/06/20 01:36:59;;;;;;;11.93;4.05;;;;;;;26.53;25.41;99124.41;5047588;28;20056;-66
2023/06/20 01:39:41;;;;;;;13.50;3.85;;;;;;;26.70;25.41;99119.53;5032445;28;20041;-65
2023/06/20 01:42:07;;;;;;;17.08;4.70;;;;;;;26.69;25.44;99127.97;5016417;28;20493;-65
2023/06/20 01:44:35;;;;;;;10.10;3.47;;;;;;;26.88;24.88;99131.75;5013337;28;20129;-65
2023/06/20 01:47:02;;;;;;;11.32;4.25;;;;;;;26.87;25.03;99120.03;5033225;28;20494;-66
2023/06/20 01:49:28;;;;;;;14.20;4.00;;;;;;;26.92;24.71;99130.94;5042620;28;20089;-66
2023/06/20 01:51:56;;;;;;;10.55;3.80;;;;;;;27.07;25.02;99127.34;5050483;28;20040;-65
2023/06/20 01:54:27;;;;;;;11.07;4.63;;;;;;;27.21;24.68;99131.94;5074618;28;20516;-66
2023/06/20 01:56:54;;;;;;;8.50;3.97;;;;;;;27.31;24.43;99128.38;5061585;28;20036;-66
2023/06/20 01:59:20;;;;;;;9.32;3.92;;;;;;;27.27;24.42;99135.50;5037640;28;20051;-67
2023/06/20 02:01:47;;;;;;;13.52;4.10;;;;;;;27.46;24.48;99140.03;5073695;28;20028;-67
2023/06/20 02:04:15;;;;;;;9.95;3.90;;;;;;;27.58;24.22;99135.09;5056363;28;20058;-65
2023/06/20 02:06:43;;;;;;;11.48;4.13;;;;;;;27.61;23.87;99140.00;5071592;28;20048;-66
2023/06/20 02:09:08;;;;;;;11.70;4.10;;;;;;;27.69;23.91;99138.59;5024218;28;20056;-66
2023/06/20 02:11:35;;;;;;;12.90;4.10;;;;;;;27.59;23.84;99149.53;5037706;28;20044;-65
2023/06/20 02:14:03;;;;;;;15.15;5.60;;;;;;;27.64;23.92;99146.78;5023074;28;20113;-65
2023/06/20 02:16:30;;;;;;;10.18;3.92;;;;;;;27.56;24.18;99139.19;5035653;28;20038;-65
2023/06/20 02:18:56;;;;;;;19.60;4.00;;;;;;;27.54;24.17;99136.75;5061291;28;20045;-67
2023/06/20 02:21:45;;;;;;;12.15;4.05;;;;;;;27.88;24.21;99140.41;5037184;28;20440;-66
2023/06/20 02:24:20;;;;;;;11.52;4.82;;;;;;;28.19;23.51;99141.03;4994797;28;20092;-69
2023/06/20 02:26:47;;;;;;;16.92;4.47;;;;;;;28.04;23.68;99130.22;5003761;28;20065;-65
2023/06/20 02:29:14;;;;;;;13.07;4.57;;;;;;;28.00;23.67;99140.88;4978564;28;20049;-66
2023/06/20 02:31:44;;;;;;;13.98;4.20;;;;;;;28.08;23.95;99134.00;5012846;28;20447;-66
2023/06/20 02:34:13;;;;;;;10.30;4.47;;;;;;;27.83;24.34;99131.44;4980155;28;20065;-68
2023/06/20 02:36:45;;;;;;;15.02;4.68;;;;;;;27.96;23.97;99133.53;5006828;28;20058;-68
2023/06/20 02:39:11;;;;;;;;;;;;;;;28.16;23.85;99138.88;5008088;28;20046;-65
2023/06/20 02:41:41;;;;;;;15.25;4.68;;;;;;;27.93;24.62;99129.47;5010255;28;19917;-65
2023/06/20 02:44:07;;;;;;;12.07;4.88;;;;;;;27.72;24.14;99125.19;4976658;28;20058;-65
2023/06/20 02:46:39;;;;;;;17.88;4.97;;;;;;;27.87;24.62;99129.78;4976499;28;20044;-65
2023/06/20 02:49:44;;;;;;;16.35;4.75;;;;;;;28.11;24.25;99133.44;4999358;28;20165;-65
2023/06/20 02:52:36;;;;;;;11.60;4.70;;;;;;;28.12;24.18;99129.63;4999110;28;20060;-65
2023/06/20 02:55:34;;;;;;;15.10;4.90;;;;;;;28.13;24.08;99123.06;5036607;28;20056;-65
2023/06/20 02:58:10;;;;;;;18.55;5.00;;;;;;;28.13;24.18;99133.97;5053335;28;20131;-66
2023/06/20 03:00:37;;;;;;;23.52;5.32;;;;;;;28.03;24.26;99123.94;5055856;28;20055;-65
2023/06/20 03:03:10;;;;;;;14.23;4.97;;;;;;;27.95;25.17;99121.00;5066844;28;20061;-66
2023/06/20 03:05:42;;;;;;;14.90;4.90;;;;;;;28.18;25.18;99131.22;5043493;28;20045;-66
2023/06/20 03:08:09;;;;;;;14.02;5.18;;;;;;;28.10;24.89;99126.34;5012970;28;20052;-64
2023/06/20 03:10:36;;;;;;;19.85;5.25;;;;;;;28.05;24.97;99128.31;4981017;28;20537;-65
2023/06/20 03:13:03;;;;;;;18.05;5.88;;;;;;;28.00;25.04;99108.13;4980366;28;20052;-64
2023/06/20 03:15:29;;;;;;;14.98;5.43;;;;;;;27.86;25.29;99123.47;5044703;28;20067;-64
2023/06/20 03:18:01;;;;;;;20.80;6.25;;;;;;;27.87;25.60;99125.16;5036130;28;20380;-64
2023/06/20 03:20:30;;;;;;;14.73;5.22;;;;;;;27.95;25.70;99124.53;4971922;28;20143;-65
2023/06/20 03:22:57;;;;;;;16.65;5.22;;;;;;;27.80;25.56;99127.31;4980660;28;20060;-65
2023/06/20 03:25:23;;;;;;;14.70;4.68;;;;;;;27.90;25.24;99131.94;4991865;28;20058;-65
2023/06/20 03:27:50;;;;;;;14.40;4.18;;;;;;;28.15;25.01;99126.31;4980440;28;20203;-66
2023/06/20 03:30:19;;;;;;;9.93;4.85;;;;;;;28.23;24.61;99133.88;4996816;28;20494;-65
2023/06/20 03:32:48;;;;;;;11.75;4.93;;;;;;;28.10;24.79;99115.44;4978142;28;20043;-64
2023/06/20 03:35:14;;;;;;;11.30;4.80;;;;;;;28.21;24.48;99127.09;4965530;28;20143;-64
2023/06/20 03:37:40;;;;;;;11.30;4.65;;;;;;;27.87;25.00;99130.59;5038276;28;20077;-64
2023/06/20 03:40:07;;;;;;;14.95;4.50;;;;;;;27.95;24.99;99124.53;5026288;28;20081;-64
2023/06/20 03:42:37;;;;;;;13.30;4.37;;;;;;;28.22;25.18;99124.06;5000740;28;20053;-64
2023/06/20 03:45:03;;;;;;;18.75;5.40;;;;;;;28.42;25.03;99131.28;5015738;28;20655;-65
2023/06/20 03:47:31;;;;;;;13.93;5.53;;;;;;;28.47;25.14;99123.09;5019933;28;20131;-65
2023/06/20 03:49:58;;;;;;;16.23;4.57;;;;;;;28.50;25.16;99126.06;5003540;28;20041;-65
2023/06/20 03:52:24;;;;;;;15.65;4.43;;;;;;;28.60;25.01;99128.69;5019777;28;20074;-65
2023/06/20 03:54:49;;;;;;;13.35;4.88;;;;;;;28.55;25.29;99126.03;4987813;28;20056;-65
2023/06/20 03:57:15;;;;;;;14.60;4.50;;;;;;;28.57;25.01;99109.34;5019724;28;20041;-65
2023/06/20 03:59:41;;;;;;;10.82;4.57;;;;;;;28.49;25.42;99123.63;5030106;28;20108;-65
2023/06/20 04:02:08;;;;;;;14.32;4.97;;;;;;;28.57;25.34;99115.59;5076872;28;20044;-65
2023/06/20 04:04:34;;;;;;;11.90;4.40;;;;;;;28.50;25.06;99117.06;5076380;28;20055;-65
2023/06/20 04:07:00;;;;;;;20.00;5.20;;;;;;;28.69;25.08;99123.44;5058454;28;20474;-65
2023/06/20 04:09:26;;;;;;;15.85;5.00;;;;;;;28.62;24.81;99126.50;5049665;28;20089;-66
2023/06/20 04:11:53;;;;;;;13.38;5.05;;;;;;;28.63;25.31;99128.13;5069147;28;20044;-65
2023/06/20 04:14:19;;;;;;;14.98;5.28;;;;;;;28.46;25.96;99115.97;5108820;28;20132;-64
2023/06/20 04:16:47;;;;;;;21.85;5.53;;;;;;;28.38;26.45;99109.22;5059022;28;20430;-65
2023/06/20 04:19:14;;;;;;;14.95;5.00;;;;;;;28.46;26.14;99111.31;5071956;28;20044;-65
2023/06/20 04:21:40;;;;;;;14.73;4.90;;;;;;;28.41;26.36;99116.84;5090703;28;20569;-65
2023/06/20 04:24:07;;;;;;;19.35;4.68;;;;;;;28.46;26.19;99110.50;5091173;28;20146;-65
2023/06/20 04:26:36;;;;;;;14.63;4.70;;;;;;;28.64;25.80;99112.56;5074950;28;20142;-65
2023/06/20 04:29:02;;;;;;;11.07;4.45;;;;;;;28.93;25.60;99121.56;5062815;28;20050;-65
2023/06/20 04:31:32;;;;;;;10.55;4.70;;;;;;;29.21;25.04;99115.25;5074462;28;20147;-64
2023/06/20 04:33:58;;;;;;;16.92;4.72;;;;;;;29.50;24.48;99111.34;5061203;28;20052;-65
2023/06/20 04:36:28;;;;;;;19.63;4.47;;;;;;;29.76;23.91;99111.00;5062784;28;20550;-65
2023/06/20 04:38:57;;;;;;;18.70;5.13;;;;;;;29.95;23.58;99112.66;5080353;28;20051;-65
2023/06/20 04:41:23;;;;;;;12.82;4.10;;;;;;;30.05;23.16;99117.97;5095604;28;20382;-64
2023/06/20 04:43:50;;;;;;;21.88;4.60;;;;;;;30.08;23.25;99120.13;5094812;28;20040;-67
2023/06/20 04:46:16;;;;;;;12.70;4.63;;;;;;;30.11;23.02;99118.69;5112322;28;20134;-64
2023/06/20 04:48:44;;;;;;;15.73;4.28;;;;;;;30.08;23.27;99114.63;5077939;28;20328;-64
2023/06/20 04:51:10;;;;;;;19.60;4.20;;;;;;;29.97;23.31;99117.84;5069739;28;20048;-65
2023/06/20 04:53:37;;;;;;;15.75;4.25;;;;;;;29.98;23.08;99116.72;5056202;28;20038;-65
2023/06/20 04:56:03;;;;;;;19.10;4.07;;;;;;;29.83;23.09;99106.00;5070973;28;20036;-65
2023/06/20 04:58:30;;;;;;;10.65;3.85;;;;;;;30.02;23.01;99124.03;5099827;28;20044;-65
2023/06/20 05:00:58;;;;;;;13.70;3.53;;;;;;;29.87;22.20;99124.28;5099026;28;20116;-65
2023/06/20 05:03:24;;;;;;;11.27;3.40;;;;;;;29.83;21.95;99122.44;5080121;28;20059;-65
2023/06/20 05:05:51;;;;;;;5.75;3.08;;;;;;;29.78;21.91;99119.75;5077176;28;20052;-65
2023/06/20 05:08:17;;;;;;;9.65;2.97;;;;;;;29.79;21.30;99126.84;5092978;28;20055;-65
2023/06/20 05:10:43;;;;;;;8.57;2.70;;;;;;;29.88;21.01;99122.34;5058115;28;20425;-65
2023/06/20 05:13:09;;;;;;;10.63;3.15;;;;;;;29.89;20.50;99122.06;5058563;28;20479;-66
2023/06/20 05:15:35;;;;;;;10.32;3.40;;;;;;;29.87;20.40;99112.50;5059068;28;20040;-65
2023/06/20 05:18:01;;;;;;;15.02;2.90;;;;;;;29.99;20.21;99121.06;5057792;28;20129;-64
2023/06/20 05:20:28;;;;;;;6.20;2.58;;;;;;;30.02;21.21;99118.56;5060755;28;20075;-65
2023/06/20 05:22:56;;;;;;;9.98;2.55;;;;;;;30.09;20.63;99110.78;5037721;28;20504;-66
2023/06/20 05:25:23;;;;;;;8.85;2.40;;;;;;;30.16;20.07;99110.41;5037976;28;20400;-64
2023/06/20 05:27:49;;;;;;;7.43;2.50;;;;;;;30.24;19.56;99109.78;5053443;28;20053;-66
2023/06/20 05:30:17;;;;;;;6.28;2.80;;;;;;;30.28;19.84;99110.78;5016243;28;20123;-65
2023/06/20 05:32:45;;;;;;;4.90;2.38;;;;;;;30.56;19.33;99107.03;5034417;28;20060;-66
2023/06/20 05:35:11;;;;;;;6.18;2.42;;;;;;;30.44;19.15;99098.47;5018387;28;20103;-65
2023/06/20 05:37:37;;;;;;;8.70;2.30;;;;;;;30.61;18.86;99102.28;5001430;28;20045;-67
2023/06/20 05:40:06;;;;;;;8.55;2.92;;;;;;;30.49;18.90;99080.00;5001316;28;20052;-65
2023/06/20 05:42:32;;;;;;;9.00;2.63;;;;;;;30.70;18.53;99102.41;5002309;28;20048;-65
2023/06/20 05:44:58;;;;;;;4.45;1.95;;;;;;;30.79;18.27;99097.88;5050523;28;20509;-66
2023/06/20 05:47:25;;;;;;;12.15;3.30;;;;;;;31.05;18.61;99102.59;5017563;28;20053;-67
2023/06/20 05:49:51;;;;;;;8.10;2.45;;;;;;;30.95;18.02;99088.25;5030362;28;20064;-65
2023/06/20 05:52:17;;;;;;;10.73;2.45;;;;;;;31.01;17.90;99098.81;5027386;28;20079;-68
2023/06/20 05:54:44;;;;;;;6.82;2.40;;;;;;;31.10;17.91;99082.47;5035312;28;20060;-66
2023/06/20 05:57:10;;;;;;;3.33;1.90;;;;;;;31.21;17.76;99085.81;5035318;28;20081;-65
2023/06/20 05:59:36;;;;;;;6.43;2.35;;;;;;;31.32;17.69;99079.84;5036201;28;20500;-65
2023/06/20 06:02:05;;;;;;;8.68;2.47;;;;;;;31.55;17.57;99073.31;5051728;28;20044;-65
2023/06/20 06:04:33;;;;;;;6.40;2.08;;;;;;;31.57;17.85;99093.03;5036281;28;20052;-65
2023/06/20 06:07:00;;;;;;;6.50;2.33;;;;;;;31.69;17.36;99078.78;5036360;28;20041;-65
2023/06/20 06:09:25;;;;;;;8.40;2.33;;;;;;;31.75;17.39;99083.84;5022426;28;20770;-66
2023/06/20 06:11:51;;;;;;;6.45;2.40;;;;;;;31.80;17.37;99091.16;5054454;28;20046;-66
2023/06/20 06:14:18;;;;;;;5.80;2.28;;;;;;;31.90;17.01;99077.22;5052121;28;20052;-65
2023/06/20 06:16:44;;;;;;;7.93;2.65;;;;;;;31.99;16.92;99091.81;5036567;28;20041;-65
2023/06/20 06:19:12;;;;;;;7.18;2.50;;;;;;;32.10;16.73;99074.81;5028162;28;20122;-65
2023/06/20 06:21:41;;;;;;;6.53;2.53;;;;;;;32.21;16.76;99080.84;5036089;28;20060;-66
2023/06/20 06:24:09;;;;;;;5.47;2.03;;;;;;;32.40;16.85;99085.06;5050900;28;20442;-65
2023/06/20 06:26:35;;;;;;;4.18;2.10;;;;;;;32.50;16.27;99081.25;5014284;28;20150;-65
2023/06/20 06:29:04;;;;;;;7.35;2.97;;;;;;;32.69;16.60;99079.09;5021914;28;20403;-65
2023/06/20 06:31:35;;;;;;;6.63;2.13;;;;;;;32.92;16.11;99071.63;5050789;28;20387;-65
2023/06/20 06:34:04;;;;;;;7.15;2.30;;;;;;;32.97;16.17;99074.25;5066261;28;20464;-65
2023/06/20 06:36:33;;;;;;;8.48;2.67;;;;;;;33.07;16.42;99082.19;5078527;28;20075;-66
2023/06/20 06:39:00;;;;;;;7.05;2.78;;;;;;;33.17;16.06;99063.44;5048888;28;20168;-65
2023/06/20 06:41:27;;;;;;;6.78;2.42;;;;;;;33.41;15.49;99074.09;5032374;28;20053;-66
2023/06/20 06:43:52;;;;;;;5.97;2.15;;;;;;;33.69;15.54;99075.44;5031305;28;20036;-66
2023/06/20 06:46:20;;;;;;;8.70;2.05;;;;;;;33.92;15.18;99074.19;5041814;28;20039;-66
2023/06/20 06:48:47;;;;;;;6.85;2.00;;;;;;;34.28;14.57;99069.13;5085956;28;20371;-66
2023/06/20 06:51:15;;;;;;;7.70;2.00;;;;;;;34.65;14.23;99067.59;5044686;28;20135;-65
2023/06/20 06:53:41;;;;;;;7.40;2.00;;;;;;;35.03;14.17;99066.53;5071984;28;20045;-66
2023/06/20 06:56:06;;;;;;;5.28;2.30;;;;;;;35.50;13.66;99070.03;5038028;28;20063;-66
2023/06/20 06:58:33;;;;;;;8.25;2.33;;;;;;;35.83;13.47;99068.19;5071803;28;20147;-66
2023/06/20 07:00:59;;;;;;;14.40;4.10;;;;;;;36.18;14.48;99071.50;5061077;28;20444;-66
2023/06/20 07:03:26;;;;;;;10.77;2.30;;;;;;;36.18;13.12;99060.44;5086958;28;20385;-65
2023/06/20 07:05:52;;;;;;;7.88;3.28;;;;;;;36.03;13.76;99061.06;5057300;28;20474;-66
2023/06/20 07:08:18;;;;;;;10.40;2.30;;;;;;;36.15;13.58;99072.97;5057785;28;20044;-66
2023/06/20 07:10:47;;;;;;;10.00;2.28;;;;;;;35.80;13.32;99063.31;5092953;28;20809;-65
2023/06/20 07:13:14;;;;;;;8.40;2.15;;;;;;;35.99;13.66;99065.63;5082002;28;20578;-65
2023/06/20 07:15:41;;;;;;;6.75;2.30;;;;;;;36.17;13.37;99059.59;5071156;28;20067;-65
2023/06/20 07:18:07;;;;;;;7.18;2.40;;;;;;;36.39;13.79;99055.69;5072777;28;20052;-66
2023/06/20 07:20:33;;;;;;;11.73;2.33;;;;;;;36.21;13.70;99051.44;5071896;28;20094;-67
2023/06/20 07:23:05;;;;;;;12.20;2.70;;;;;;;35.54;13.85;99038.66;5072795;28;20503;-66
2023/06/20 07:25:31;;;;;;;8.82;3.58;;;;;;;35.66;14.13;99057.22;5083880;28;20052;-65
2023/06/20 07:27:58;;;;;;;18.92;9.32;;;;;;;35.68;14.04;99055.78;5051281;28;20044;-65
2023/06/20 07:30:24;;;;;;;5.93;2.70;;;;;;;36.11;13.87;99046.31;5027967;28;20060;-66
2023/06/20 07:32:50;;;;;;;17.73;4.05;;;;;;;36.38;13.83;99045.78;5038621;28;20053;-66
2023/06/20 07:35:17;;;;;;;11.07;4.03;;;;;;;36.72;13.49;99054.50;5028682;28;20052;-66
2023/06/20 07:37:45;;;;;;;27.85;7.57;;;;;;;36.82;13.51;99058.81;5016087;28;20033;-67
2023/06/20 07:40:11;;;;;;;13.00;3.17;;;;;;;37.00;12.91;99054.66;5033372;28;20059;-65
2023/06/20 07:42:37;;;;;;;7.90;3.70;;;;;;;36.71;13.39;99054.84;5000369;28;20096;-65
2023/06/20 07:45:03;;;;;;;11.75;3.28;;;;;;;36.80;12.80;99055.56;5013690;28;20482;-65
2023/06/20 07:47:34;;;;;;;7.35;3.30;;;;;;;36.96;12.97;99057.34;5000754;28;20132;-67
2023/06/20 07:49:59;;;;;;;19.10;2.85;;;;;;;36.84;12.78;99048.22;5031539;28;20137;-66
2023/06/20 07:52:27;;;;;;;12.50;2.65;;;;;;;36.63;12.78;99058.50;5033988;28;20147;-65
2023/06/20 07:54:55;;;;;;;10.43;3.10;;;;;;;36.31;13.44;99051.03;5006160;28;20036;-66
2023/06/20 07:57:23;;;;;;;4.53;2.58;;;;;;;36.07;13.85;99057.28;5045054;28;20128;-66
2023/06/20 07:59:50;;;;;;;10.60;4.68;;;;;;;36.17;14.16;99047.72;5018711;28;20114;-66
2023/06/20 08:02:17;;;;;;;25.08;3.47;;;;;;;36.37;13.66;99038.59;5050478;28;20059;-66
2023/06/20 08:04:44;;;;;;;4.20;2.03;;;;;;;36.77;13.40;99048.78;5057817;28;20043;-66
2023/06/20 08:07:10;;;;;;;11.82;3.15;;;;;;;36.67;14.39;99040.91;5080976;28;20072;-66
2023/06/20 08:09:36;;;;;;;11.52;2.33;;;;;;;36.66;13.42;99046.78;5074808;28;20078;-66
2023/06/20 08:12:02;;;;;;;6.82;2.40;;;;;;;36.62;13.22;99040.28;5076959;28;20055;-65
2023/06/20 08:14:28;;;;;;;7.43;2.40;;;;;;;37.05;12.51;99046.13;5090583;28;20040;-71
2023/06/20 08:16:54;;;;;;;9.43;2.38;;;;;;;38.88;11.61;99038.53;5074804;28;20058;-65
2023/06/20 08:19:20;;;;;;;8.57;2.33;;;;;;;41.70;9.99;99029.91;5057470;28;20484;-65
2023/06/20 08:21:46;;;;;;;5.32;2.08;;;;;;;43.53;8.71;99031.84;5052451;28;20035;-65
2023/06/20 08:24:11;;;;;;;6.53;2.13;;;;;;;45.39;8.32;99054.00;5069867;28;20048;-65
2023/06/20 08:26:38;;;;;;;11.82;2.10;;;;;;;47.18;7.03;99041.91;5038605;28;20063;-65
2023/06/20 08:29:04;;;;;;;11.18;1.75;;;;;;;48.31;6.14;99016.13;5070986;28;20040;-65
2023/06/20 08:31:36;;;;;;;4.57;1.88;;;;;;;49.07;5.81;99033.09;5072196;28;20056;-65
2023/06/20 08:34:03;;;;;;;6.63;1.80;;;;;;;48.26;5.97;99028.63;5071714;28;20044;-65
2023/06/20 08:36:29;;;;;;;6.03;1.83;;;;;;;47.09;6.32;99036.75;5072884;28;20352;-65
2023/06/20 08:38:55;;;;;;;6.55;1.67;;;;;;;45.78;6.91;99026.69;5055336;28;20045;-64
2023/06/20 08:41:28;;;;;;;9.93;2.17;;;;;;;44.88;7.34;99017.13;5072612;28;20041;-65
2023/06/20 08:43:54;;;;;;;6.13;2.13;;;;;;;45.64;6.74;99016.25;5055027;28;20036;-68
2023/06/20 08:46:20;;;;;;;7.05;1.80;;;;;;;46.83;6.43;99020.47;5072510;28;20118;-65
2023/06/20 08:48:47;;;;;;;9.10;1.63;;;;;;;48.32;5.83;99017.72;5071606;28;20139;-65
2023/06/20 08:51:15;;;;;;;9.45;1.88;;;;;;;49.68;4.74;99011.81;5072671;28;20032;-65
2023/06/20 08:53:44;;;;;;;5.75;1.98;;;;;;;50.05;4.83;99019.13;5055035;28;20372;-65
2023/06/20 08:56:10;;;;;;;7.10;2.38;;;;;;;51.20;4.40;99009.13;5072059;28;20041;-65
2023/06/20 08:58:36;;;;;;;7.72;1.73;;;;;;;52.24;3.79;99017.91;5072603;28;20045;-65
2023/06/20 09:01:02;;;;;;;6.07;1.73;;;;;;;53.39;3.58;99007.63;5071244;28;20037;-66
2023/06/20 09:03:28;;;;;;;6.97;1.75;;;;;;;53.45;3.44;99015.06;5071447;28;20048;-65
2023/06/20 09:05:54;;;;;;;6.55;1.67;;;;;;;54.19;2.97;99012.34;5071167;28;20041;-66
2023/06/20 09:08:20;;;;;;;6.47;2.10;;;;;;;55.03;2.38;98991.00;5072238;28;20041;-65
2023/06/20 09:10:46;;;;;;;10.40;1.85;;;;;;;55.18;2.53;99014.75;5072064;28;20499;-65
2023/06/20 09:13:15;;;;;;;8.73;1.80;;;;;;;55.71;2.26;99001.00;5053227;28;20066;-65
2023/06/20 09:15:41;;;;;;;;;;;;;;;55.96;2.17;98997.81;5071113;28;20045;-66
2023/06/20 09:18:07;;;;;;;8.82;1.67;;;;;;;54.87;2.70;98994.16;5071994;28;19931;-65
2023/06/20 09:20:35;;;;;;;3.38;1.63;;;;;;;53.68;3.23;98976.94;5070375;28;20051;-65
2023/06/20 09:23:01;;;;;;;11.05;1.90;;;;;;;53.54;3.38;98982.31;5070952;28;20480;-65
2023/06/20 09:25:28;;;;;;;3.47;1.80;;;;;;;53.94;3.23;98983.28;5071295;28;20083;-65
2023/06/20 09:27:55;;;;;;;6.22;1.50;;;;;;;53.38;3.43;98969.91;5070699;28;20051;-65
2023/06/20 09:30:23;;;;;;;5.18;1.67;;;;;;;51.48;4.19;98974.41;5070824;28;20452;-65
2023/06/20 09:32:49;;;;;;;7.38;1.92;;;;;;;50.31;4.59;98973.72;5071043;28;20044;-65
2023/06/20 09:35:15;;;;;;;10.55;1.80;;;;;;;51.02;4.35;98969.19;5054231;28;20040;-65
2023/06/20 09:37:42;;;;;;;6.78;2.03;;;;;;;52.23;3.41;98968.13;5070793;28;20044;-65
2023/06/20 09:40:11;;;;;;;5.85;1.70;;;;;;;50.94;4.30;98959.25;5070555;28;20044;-65
2023/06/20 09:42:39;;;;;;;9.40;1.63;;;;;;;48.46;5.24;98964.75;5071221;28;20182;-66
2023/06/20 09:45:07;;;;;;;10.20;1.83;;;;;;;47.07;5.49;98949.16;5053888;28;20123;-65
2023/06/20 09:47:36;;;;;;;8.73;2.08;;;;;;;47.96;5.68;98949.00;5071283;28;20047;-66
2023/06/20 09:50:12;;;;;;;7.25;1.90;;;;;;;49.94;4.79;98962.84;5070384;28;20131;-65
2023/06/20 09:52:42;;;;;;;6.05;1.92;;;;;;;51.97;3.55;98962.44;5054439;28;20105;-65
2023/06/20 09:55:10;;;;;;;9.30;1.70;;;;;;;53.53;3.04;98955.97;5070589;28;20158;-65
2023/06/20 09:57:50;;;;;;;5.68;1.63;;;;;;;54.82;2.13;98957.75;5053948;28;20384;-66
2023/06/20 10:00:17;;;;;;;3.97;1.70;;;;;;;55.81;2.18;98965.56;5070388;28;20052;-66
2023/06/20 10:02:47;;;;;;;5.38;1.70;;;;;;;56.89;1.63;98947.16;5070062;28;20048;-66
2023/06/20 10:05:15;;;;;;;9.38;1.70;;;;;;;56.22;1.98;98959.88;5070942;28;20040;-66
2023/06/20 10:07:42;;;;;;;4.43;1.88;;;;;;;53.73;2.38;98947.94;5071310;28;20054;-66
2023/06/20 10:10:10;;;;;;;4.40;1.95;;;;;;;51.67;3.71;98936.66;5070244;28;20052;-66
2023/06/20 10:12:37;;;;;;;10.38;2.03;;;;;;;50.65;3.98;98938.56;5020061;28;20555;-65
2023/06/20 10:15:04;;;;;;;6.07;1.73;;;;;;;49.34;4.21;98931.41;5069053;28;20048;-65
2023/06/20 10:17:36;;;;;;;13.05;2.13;;;;;;;48.06;5.22;98922.69;5037233;28;20399;-66
2023/06/20 10:20:08;;;;;;;9.07;2.33;;;;;;;46.67;5.78;98921.03;5069787;28;20037;-65
2023/06/20 10:22:41;;;;;;;5.40;1.77;;;;;;;46.01;6.04;98911.84;5070895;28;20357;-65
2023/06/20 10:25:14;;;;;;;5.75;2.20;;;;;;;45.62;6.63;98911.22;5036241;28;20051;-65
2023/06/20 10:27:43;;;;;;;8.95;2.30;;;;;;;45.03;6.60;98912.19;5070960;28;20040;-65
2023/06/20 10:30:12;;;;;;;4.85;2.20;;;;;;;44.16;7.31;98905.38;5071226;28;20048;-65
2023/06/20 10:33:10;;;;;;;8.52;2.00;;;;;;;43.71;7.53;98892.03;5054447;28;20052;-65
2023/06/20 10:36:08;;;;;;;6.10;2.47;;;;;;;43.41;7.63;98897.88;5070465;28;20048;-65
2023/06/20 10:38:38;;;;;;;10.43;2.00;;;;;;;43.60;7.82;98891.19;5053457;28;20044;-65
2023/06/20 10:41:12;;;;;;;3.42;1.98;;;;;;;45.74;6.98;98905.16;5070766;28;20040;-65
2023/06/20 10:43:55;;;;;;;5.60;1.92;;;;;;;48.10;5.67;98890.44;5070409;28;20048;-65
2023/06/20 10:46:36;;;;;;;5.88;2.33;;;;;;;48.27;5.37;98900.63;5053080;28;20562;-65
2023/06/20 10:49:04;;;;;;;4.43;1.88;;;;;;;48.20;5.27;98895.09;5070393;28;20056;-66
2023/06/20 10:51:30;;;;;;;5.10;1.80;;;;;;;47.82;5.26;98890.03;5051847;28;20044;-65
2023/06/20 10:54:10;;;;;;;8.05;2.10;;;;;;;48.98;5.42;98892.59;5068457;28;20102;-66
2023/06/20 10:56:36;;;;;;;9.20;2.00;;;;;;;49.74;4.92;98891.47;5018924;28;20143;-65
2023/06/20 10:59:12;;;;;;;9.95;2.33;;;;;;;49.29;4.42;98909.34;4979705;28;20056;-65
2023/06/20 11:01:38;;;;;;;6.03;2.35;;;;;;;49.60;4.78;98897.38;5028459;28;20483;-65
2023/06/20 11:04:08;;;;;;;3.85;1.92;;;;;;;49.96;4.05;98891.78;4995312;28;20153;-66
2023/06/20 11:06:34;;;;;;;6.80;1.98;;;;;;;49.19;4.86;98894.19;5012115;28;20080;-65
2023/06/20 11:09:00;;;;;;;5.38;2.30;;;;;;;48.17;5.13;98886.69;4979808;28;20417;-65
2023/06/20 11:11:34;;;;;;;2.70;2.20;;;;;;;46.92;5.78;98879.44;5028493;28;20045;-65
2023/06/20 11:14:09;;;;;;;5.22;2.20;;;;;;;45.92;6.51;98881.41;5047220;28;20048;-66
2023/06/20 11:16:35;;;;;;;8.23;2.15;;;;;;;45.23;6.73;98871.28;5047892;28;20067;-64
2023/06/20 11:19:01;;;;;;;5.30;2.50;;;;;;;44.82;6.90;98872.97;5045699;28;20057;-66
2023/06/20 11:21:27;;;;;;;5.90;2.30;;;;;;;44.46;7.43;98861.78;5024009;28;20036;-65
2023/06/20 11:24:02;;;;;;;7.57;2.42;;;;;;;44.34;7.77;98867.00;5039224;28;20103;-66
2023/06/20 11:26:29;;;;;;;6.20;2.30;;;;;;;43.71;7.74;98864.06;5009101;28;20045;-64
2023/06/20 11:29:02;;;;;;;3.95;2.30;;;;;;;43.46;8.37;98869.53;5045274;28;20037;-65
2023/06/20 11:31:28;;;;;;;10.27;2.40;;;;;;;43.09;8.39;98863.34;5087073;28;20033;-66
2023/06/20 11:34:09;;;;;;;7.70;2.30;;;;;;;43.12;8.54;98854.22;5079694;28;20040;-66
2023/06/20 11:36:38;;;;;;;5.28;2.60;;;;;;;42.71;8.63;98848.00;5068619;28;20052;-65
2023/06/20 11:39:09;;;;;;;3.53;2.33;;;;;;;42.51;9.17;98854.19;5085702;28;20046;-65